Time;durP1;ratioP1;P1;durP2;ratioP2;P2;SDS_P1;SDS_P2;PMS_P1;PMS_P2;Temp;Humidity;BMP_temperature;BMP_pressure;BME280_temperature;BME280_humidity;BME280_pressure;Samples;Min_cycle;Max_cycle;Signal;HPM_P1;HPM_P2
2022/09/25 00:01:20;;;;;;;;;4.75;4.00;;;;;16.29;61.04;100705.78;4877109;29;46179;-77
2022/09/25 00:03:46;;;;;;;;;4.25;4.00;;;;;16.30;60.72;100718.03;4851930;29;45603;-75
2022/09/25 00:06:17;;;;;;;;;4.00;4.00;;;;;16.31;60.92;100717.03;4871497;29;45775;-74
2022/09/25 00:08:44;;;;;;;;;4.25;4.25;;;;;16.31;60.78;100728.44;4870953;29;45648;-74
2022/09/25 00:11:18;;;;;;;;;8.25;6.00;;;;;16.31;60.72;100720.50;4856217;29;45798;-73
2022/09/25 00:13:44;;;;;;;;;4.25;4.00;;;;;16.28;60.80;100731.38;4860717;29;45723;-73
2022/09/25 00:16:13;;;;;;;;;5.75;5.75;;;;;16.30;60.62;100729.41;4875845;29;46702;-76
2022/09/25 00:21:22;;;;;;;;;4.75;4.00;;;;;16.26;60.69;100725.41;4877023;29;45688;-78
2022/09/25 00:23:48;;;;;;;;;5.25;5.25;;;;;16.18;60.73;100720.00;4875756;29;45723;-76
2022/09/25 00:26:15;;;;;;;;;4.25;4.00;;;;;16.26;60.74;100729.84;4868713;29;46527;-77
2022/09/25 00:28:42;;;;;;;;;4.00;3.50;;;;;16.23;60.64;100735.44;4869333;29;47000;-76
2022/09/25 00:31:09;;;;;;;;;4.00;4.00;;;;;16.16;60.99;100721.09;4876055;29;45989;-75
2022/09/25 00:33:35;;;;;;;;;6.00;5.00;;;;;16.15;61.00;100722.06;4877421;29;46015;-75
2022/09/25 00:36:09;;;;;;;;;3.75;3.75;;;;;16.17;61.16;100731.53;4868524;29;45624;-76
2022/09/25 00:38:36;;;;;;;;;3.25;3.00;;;;;16.15;61.30;100724.72;4872146;29;46441;-75
2022/09/25 00:41:03;;;;;;;;;4.25;3.00;;;;;16.12;61.13;100728.50;4869788;29;45875;-77
2022/09/25 00:43:38;;;;;;;;;5.50;4.00;;;;;16.10;61.21;100740.16;4845114;29;45676;-78
2022/09/25 00:46:13;;;;;;;;;4.00;4.00;;;;;16.01;61.32;100725.16;4872305;29;46441;-76
2022/09/25 00:48:57;;;;;;;;;4.75;3.50;;;;;16.05;61.46;100723.91;4870319;29;46948;-76
2022/09/25 00:51:28;;;;;;;;;4.50;3.75;;;;;15.96;61.55;100720.31;4876711;29;46466;-74
2022/09/25 00:54:02;;;;;;;;;3.75;3.25;;;;;15.92;61.50;100711.00;4877171;29;46154;-76
2022/09/25 00:56:35;;;;;;;;;5.25;5.00;;;;;15.83;61.46;100696.81;4872464;29;46018;-75
2022/09/25 00:59:00;;;;;;;;;5.00;4.00;;;;;15.89;61.55;100720.03;4849208;29;48254;-74
2022/09/25 01:01:26;;;;;;;;;8.25;7.00;;;;;15.87;62.03;100734.38;4878349;29;45516;-73
2022/09/25 01:03:54;;;;;;;;;5.50;5.50;;;;;15.77;61.88;100700.00;4870903;29;45602;-75
2022/09/25 01:06:21;;;;;;;;;7.00;6.00;;;;;15.78;62.10;100712.25;4870996;29;46456;-74
2022/09/25 01:08:48;;;;;;;;;7.75;7.25;;;;;15.75;62.13;100715.19;4870530;29;46056;-75
2022/09/25 01:11:15;;;;;;;;;6.50;5.25;;;;;15.73;62.30;100709.19;4845471;29;45800;-73
2022/09/25 01:13:40;;;;;;;;;7.00;5.00;;;;;15.74;62.15;100724.06;4853479;29;45669;-73
2022/09/25 01:16:18;;;;;;;;;5.75;5.50;;;;;15.75;61.99;100723.09;4877180;29;46488;-75
2022/09/25 01:19:08;;;;;;;;;6.00;5.25;;;;;15.68;62.55;100710.59;4876736;29;46189;-73
2022/09/25 01:21:51;;;;;;;;;8.25;6.50;;;;;15.71;62.17;100732.25;4875409;29;45773;-75
2022/09/25 01:25:02;;;;;;;;;6.00;6.00;;;;;15.65;62.48;100721.44;4853220;29;46136;-76
2022/09/25 01:27:37;;;;;;;;;7.25;6.75;;;;;15.63;62.84;100724.22;4864000;29;46758;-74
2022/09/25 01:30:17;;;;;;;;;11.50;10.75;;;;;15.64;62.58;100730.34;4864110;29;47183;-74
2022/09/25 01:33:00;;;;;;;;;18.00;16.25;;;;;15.60;63.02;100735.03;4875431;29;45769;-76
2022/09/25 01:35:45;;;;;;;;;19.00;17.50;;;;;15.56;62.93;100723.09;4869992;29;46007;-76
2022/09/25 01:38:30;;;;;;;;;20.75;19.50;;;;;15.55;62.78;100720.59;4870122;29;47426;-75
2022/09/25 01:41:13;;;;;;;;;20.25;19.00;;;;;15.50;63.12;100713.88;4874725;29;46217;-72
2022/09/25 01:43:52;;;;;;;;;20.25;19.75;;;;;15.50;63.09;100720.97;4871149;29;45808;-74
2022/09/25 01:46:27;;;;;;;;;17.75;16.00;;;;;15.45;63.18;100709.97;4870996;29;45704;-75
2022/09/25 01:48:59;;;;;;;;;20.00;15.50;;;;;15.49;63.20;100714.03;4867131;29;46521;-76
2022/09/25 01:51:40;;;;;;;;;16.00;15.75;;;;;15.48;63.11;100715.84;4873000;29;46539;-75
2022/09/25 01:54:13;;;;;;;;;14.50;13.25;;;;;15.46;63.38;100723.06;4877288;29;45740;-75
2022/09/25 01:57:01;;;;;;;;;15.75;13.75;;;;;15.46;63.29;100719.56;4872623;29;45886;-76
2022/09/25 01:59:44;;;;;;;;;13.00;12.75;;;;;15.45;63.29;100710.81;4873906;29;47204;-74
2022/09/25 02:02:13;;;;;;;;;21.00;17.50;;;;;15.42;63.21;100718.19;4868696;29;47048;-77
2022/09/25 02:04:45;;;;;;;;;7.00;5.75;;;;;15.44;63.25;100722.34;4877114;29;45681;-75
2022/09/25 02:07:19;;;;;;;;;16.25;14.00;;;;;15.46;63.51;100725.69;4874503;29;45853;-75
2022/09/25 02:09:50;;;;;;;;;12.50;12.50;;;;;15.40;63.52;100723.59;4875361;29;46788;-77
2022/09/25 02:12:25;;;;;;;;;13.00;11.50;;;;;15.41;63.83;100724.44;4864966;29;46011;-76
2022/09/25 02:14:57;;;;;;;;;11.50;10.50;;;;;15.41;63.67;100727.91;4868435;29;46303;-76
2022/09/25 02:20:32;;;;;;;;;11.00;11.00;;;;;15.41;63.87;100732.34;4876188;29;46030;-76
2022/09/25 02:23:07;;;;;;;;;7.50;7.50;;;;;15.39;63.67;100724.56;4865867;29;46700;-78
2022/09/25 02:25:41;;;;;;;;;10.00;8.00;;;;;15.40;64.14;100728.03;4873920;29;45829;-76
2022/09/25 02:28:07;;;;;;;;;7.00;6.25;;;;;15.37;64.04;100725.69;4874945;29;45807;-78
2022/09/25 02:30:32;;;;;;;;;8.25;8.00;;;;;15.39;63.65;100724.56;4871886;29;46665;-76
2022/09/25 02:32:58;;;;;;;;;8.00;7.00;;;;;15.40;63.93;100714.84;4876037;29;46191;-75
2022/09/25 02:35:24;;;;;;;;;6.00;6.00;;;;;15.32;64.07;100715.53;4859630;29;45990;-76
2022/09/25 02:37:52;;;;;;;;;7.75;6.75;;;;;15.36;64.15;100718.72;4874494;29;46003;-75
2022/09/25 02:40:21;;;;;;;;;6.75;6.00;;;;;15.39;64.18;100718.44;4860335;29;46660;-74
2022/09/25 02:42:49;;;;;;;;;5.75;5.25;;;;;15.37;64.04;100717.75;4856958;29;46142;-78
2022/09/25 02:45:32;;;;;;;;;9.25;7.25;;;;;15.35;64.08;100720.53;4863953;29;45754;-76
2022/09/25 02:48:18;;;;;;;;;8.00;7.00;;;;;15.28;64.10;100719.41;4875665;29;45985;-73
2022/09/25 02:51:01;;;;;;;;;6.00;5.00;;;;;15.27;64.13;100720.41;4876335;29;46663;-76
2022/09/25 02:54:01;;;;;;;;;6.25;5.75;;;;;15.23;64.20;100728.69;4874522;29;46044;-76
2022/09/25 02:56:37;;;;;;;;;7.25;7.25;;;;;15.19;64.64;100724.66;4875000;29;45757;-75
2022/09/25 02:59:19;;;;;;;;;6.50;5.00;;;;;15.17;64.49;100722.16;4875358;29;45990;-77
2022/09/25 03:01:46;;;;;;;;;8.00;7.00;;;;;15.20;64.49;100727.19;4855360;29;47978;-73
2022/09/25 03:04:16;;;;;;;;;10.00;9.00;;;;;15.22;64.64;100740.25;4858246;29;45880;-76
2022/09/25 03:06:42;;;;;;;;;7.50;5.50;;;;;15.18;64.70;100731.75;4868572;29;45774;-77
2022/09/25 03:09:10;;;;;;;;;6.50;6.00;;;;;15.20;64.86;100748.28;4863800;29;45741;-78
2022/09/25 03:11:40;;;;;;;;;6.00;6.00;;;;;15.03;65.07;100723.38;4850600;29;46410;-74
2022/09/25 03:14:05;;;;;;;;;9.75;7.25;;;;;15.15;65.16;100736.47;4860451;29;45914;-77
2022/09/25 03:16:51;;;;;;;;;6.00;6.00;;;;;15.17;65.13;100743.28;4850629;29;45890;-75
2022/09/25 03:19:20;;;;;;;;;9.00;7.00;;;;;15.11;65.20;100736.72;4854044;29;45911;-74
2022/09/25 03:21:47;;;;;;;;;11.50;9.50;;;;;15.15;65.00;100745.22;4868012;29;47364;-75
2022/09/25 03:24:13;;;;;;;;;9.00;8.50;;;;;15.15;65.29;100742.59;4869333;29;46066;-74
2022/09/25 03:26:39;;;;;;;;;9.25;7.50;;;;;15.17;65.36;100745.09;4869162;29;46526;-75
2022/09/25 03:29:05;;;;;;;;;9.75;8.25;;;;;15.13;65.26;100742.72;4875477;29;45626;-78
2022/09/25 03:31:31;;;;;;;;;11.00;9.50;;;;;15.17;65.14;100745.09;4857843;29;45937;-76
2022/09/25 03:33:57;;;;;;;;;6.50;6.50;;;;;15.15;65.35;100747.03;4870001;29;45688;-75
2022/09/25 03:36:24;;;;;;;;;12.25;9.25;;;;;15.16;65.25;100752.19;4869698;29;45636;-74
2022/09/25 03:38:56;;;;;;;;;11.50;10.50;;;;;15.12;65.19;100743.69;4869864;29;45828;-75
2022/09/25 03:41:25;;;;;;;;;11.00;8.25;;;;;15.16;65.46;100751.34;4873922;29;45796;-75
2022/09/25 03:43:50;;;;;;;;;11.25;10.00;;;;;15.09;65.27;100748.41;4864802;29;46609;-78
2022/09/25 03:46:19;;;;;;;;;10.25;10.00;;;;;15.08;65.52;100755.47;4860551;29;46206;-75
2022/09/25 03:48:45;;;;;;;;;9.25;8.00;;;;;15.13;65.23;100773.56;4876294;29;45661;-75
2022/09/25 03:51:11;;;;;;;;;12.00;9.00;;;;;15.11;65.34;100773.69;4860336;29;46578;-75
2022/09/25 03:53:37;;;;;;;;;12.00;10.50;;;;;15.08;65.18;100765.19;4857655;29;45926;-75
2022/09/25 03:56:09;;;;;;;;;8.75;7.50;;;;;15.11;65.62;100768.41;4859237;29;45778;-77
2022/09/25 03:58:35;;;;;;;;;10.00;8.00;;;;;15.08;65.52;100765.19;4873377;29;45580;-77
2022/09/25 04:01:01;;;;;;;;;10.00;6.50;;;;;15.07;65.51;100764.38;4864916;29;46127;-74
2022/09/25 04:03:33;;;;;;;;;9.50;8.25;;;;;15.03;65.43;100764.78;4871029;29;46052;-77
2022/09/25 04:06:03;;;;;;;;;11.25;8.00;;;;;15.02;65.63;100763.94;4872815;29;45718;-77
2022/09/25 04:08:29;;;;;;;;;9.50;9.00;;;;;14.99;65.26;100753.66;4875478;29;45739;-75
2022/09/25 04:10:58;;;;;;;;;10.50;7.50;;;;;15.00;65.45;100757.13;4866677;29;46351;-76
2022/09/25 04:13:24;;;;;;;;;8.50;7.50;;;;;15.00;65.62;100768.53;4877442;29;47488;-78
2022/09/25 04:15:50;;;;;;;;;8.50;8.00;;;;;15.03;65.64;100764.78;4868944;29;45728;-77
2022/09/25 04:18:15;;;;;;;;;8.00;7.00;;;;;15.00;65.33;100763.25;4872028;29;45757;-76
2022/09/25 04:20:40;;;;;;;;;9.50;7.50;;;;;15.04;65.55;100767.28;4876474;29;46315;-77
2022/09/25 04:23:06;;;;;;;;;7.25;7.25;;;;;14.96;65.58;100755.72;4876360;29;46031;-76
2022/09/25 04:25:31;;;;;;;;;6.75;6.75;;;;;15.01;64.98;100767.53;4877617;29;45898;-78
2022/09/25 04:27:57;;;;;;;;;8.00;8.00;;;;;15.01;65.26;100759.63;4878994;29;45605;-77
2022/09/25 04:30:24;;;;;;;;;7.50;6.50;;;;;14.98;65.51;100762.53;4869469;29;46060;-78
2022/09/25 04:35:33;;;;;;;;;7.00;6.75;;;;;15.00;65.45;100767.69;4872567;29;45723;-79
2022/09/25 04:37:59;;;;;;;;;6.25;5.25;;;;;14.91;65.75;100747.34;4860196;29;45797;-78
2022/09/25 04:40:32;;;;;;;;;9.75;7.00;;;;;14.97;65.71;100766.13;4843251;29;45587;-77
2022/09/25 04:42:59;;;;;;;;;10.25;8.25;;;;;14.95;65.76;100767.25;4871452;29;46427;-77
2022/09/25 04:45:28;;;;;;;;;5.75;4.00;;;;;14.93;65.63;100771.81;4861552;29;46088;-78
2022/09/25 04:47:54;;;;;;;;;12.00;11.00;;;;;14.94;65.56;100771.69;4855138;29;45946;-75
2022/09/25 04:50:22;;;;;;;;;10.75;10.00;;;;;14.94;65.56;100776.97;4866895;29;45619;-78
2022/09/25 04:52:50;;;;;;;;;10.50;10.25;;;;;14.92;66.16;100770.97;4874839;29;48332;-77
2022/09/25 04:55:20;;;;;;;;;10.00;9.25;;;;;14.89;65.78;100773.06;4877588;29;45770;-77
2022/09/25 04:57:53;;;;;;;;;13.75;12.25;;;;;14.89;65.85;100789.72;4848858;29;45954;-74
2022/09/25 05:00:19;;;;;;;;;12.75;11.75;;;;;14.89;65.73;100775.69;4877073;29;46236;-76
2022/09/25 05:02:47;;;;;;;;;12.00;11.50;;;;;14.84;65.59;100778.72;4872197;29;46738;-78
2022/09/25 05:05:14;;;;;;;;;11.75;11.00;;;;;14.84;65.80;100789.28;4877908;29;45799;-75
2022/09/25 05:07:50;;;;;;;;;12.75;11.25;;;;;14.81;65.96;100792.16;4875316;29;45676;-76
2022/09/25 05:10:15;;;;;;;;;11.50;10.25;;;;;14.80;65.94;100787.84;4871579;29;46136;-77
2022/09/25 05:12:41;;;;;;;;;14.25;11.00;;;;;14.81;65.70;100807.16;4876062;29;46295;-76
2022/09/25 05:15:08;;;;;;;;;13.00;11.00;;;;;14.80;66.25;100802.84;4876800;29;45701;-75
2022/09/25 05:17:33;;;;;;;;;13.00;12.00;;;;;14.79;65.77;100803.84;4877441;29;45744;-75
2022/09/25 05:19:59;;;;;;;;;13.25;13.25;;;;;14.77;65.65;100808.41;4876704;29;45771;-72
2022/09/25 05:22:27;;;;;;;;;10.75;10.50;;;;;14.74;66.13;100798.94;4875710;29;46604;-74
2022/09/25 05:24:52;;;;;;;;;10.75;8.00;;;;;14.73;65.99;100801.72;4851119;29;46568;-74
2022/09/25 05:27:18;;;;;;;;;13.25;12.75;;;;;14.72;65.79;100802.69;4873578;29;45862;-77
2022/09/25 05:29:43;;;;;;;;;13.50;13.50;;;;;14.70;65.63;100806.28;4876434;29;45989;-74
2022/09/25 05:32:08;;;;;;;;;15.25;11.25;;;;;14.63;65.70;100796.38;4875211;29;46103;-74
2022/09/25 05:34:34;;;;;;;;;13.00;11.50;;;;;14.63;65.87;100802.47;4865463;29;45837;-75
2022/09/25 05:36:59;;;;;;;;;12.75;11.50;;;;;14.66;65.99;100817.22;4862126;29;45606;-74
2022/09/25 05:39:25;;;;;;;;;12.75;11.25;;;;;14.56;65.66;100792.59;4849973;29;47458;-77
2022/09/25 05:41:51;;;;;;;;;13.50;11.75;;;;;14.59;65.94;100800.25;4872279;29;46219;-75
2022/09/25 05:44:16;;;;;;;;;12.00;11.25;;;;;14.58;65.45;100793.28;4877136;29;46232;-76
2022/09/25 05:46:42;;;;;;;;;12.50;10.00;;;;;14.52;65.83;100788.56;4871696;29;46626;-75
2022/09/25 05:49:07;;;;;;;;;14.25;12.00;;;;;14.55;65.44;100804.94;4874893;29;47347;-76
2022/09/25 05:51:32;;;;;;;;;12.50;8.75;;;;;14.59;66.00;100810.78;4874524;29;46188;-76
2022/09/25 05:53:59;;;;;;;;;13.00;11.50;;;;;14.56;65.84;100816.34;4876886;29;45626;-75
2022/09/25 05:56:25;;;;;;;;;15.50;13.00;;;;;14.57;65.75;100821.47;4876878;29;45847;-76
2022/09/25 05:58:51;;;;;;;;;12.25;11.00;;;;;14.48;65.94;100809.06;4873298;29;46583;-75
2022/09/25 06:01:18;;;;;;;;;10.50;10.00;;;;;14.54;65.68;100826.16;4872589;29;46635;-76
2022/09/25 06:03:44;;;;;;;;;13.00;11.50;;;;;14.58;65.84;100830.19;4874780;29;45744;-76
2022/09/25 06:06:09;;;;;;;;;10.75;9.75;;;;;14.59;65.42;100839.78;4867522;29;45916;-76
2022/09/25 06:08:35;;;;;;;;;10.75;10.50;;;;;14.58;65.38;100822.28;4875697;29;46324;-74
2022/09/25 06:11:01;;;;;;;;;11.75;9.50;;;;;14.57;65.60;100825.91;4875017;29;45739;-74
2022/09/25 06:13:30;;;;;;;;;12.50;8.25;;;;;14.60;65.20;100831.75;4874210;29;45537;-75
2022/09/25 06:15:57;;;;;;;;;11.50;10.50;;;;;14.50;65.81;100822.13;4872592;29;45638;-75
2022/09/25 06:18:24;;;;;;;;;10.00;10.00;;;;;14.56;65.17;100833.00;4858022;29;46500;-75
2022/09/25 06:20:50;;;;;;;;;9.00;9.00;;;;;14.46;65.42;100832.09;4864508;29;45865;-74
2022/09/25 06:23:16;;;;;;;;;10.75;10.00;;;;;14.48;65.41;100843.31;4873334;29;45756;-74
2022/09/25 06:25:42;;;;;;;;;10.75;9.00;;;;;14.49;65.60;100847.66;4867090;29;46012;-76
2022/09/25 06:28:10;;;;;;;;;7.25;6.00;;;;;14.46;65.59;100845.28;4865363;29;47328;-81
2022/09/25 06:30:37;;;;;;;;;7.75;6.75;;;;;14.46;65.02;100849.72;4853459;29;47460;-75
2022/09/25 06:33:11;;;;;;;;;9.25;9.00;;;;;14.41;65.30;100847.47;4869721;29;45705;-76
2022/09/25 06:35:44;;;;;;;;;8.75;7.00;;;;;14.34;65.18;100851.53;4876063;29;45904;-75
2022/09/25 06:38:10;;;;;;;;;7.75;5.75;;;;;14.32;65.11;100844.69;4875571;29;46125;-76
2022/09/25 06:40:39;;;;;;;;;9.25;7.25;;;;;14.35;65.23;100855.00;4860406;29;46196;-77
2022/09/25 06:43:06;;;;;;;;;9.50;8.75;;;;;14.24;65.53;100846.19;4871140;29;46144;-77
2022/09/25 06:45:33;;;;;;;;;6.50;6.50;;;;;14.22;64.96;100839.34;4872454;29;45908;-75
2022/09/25 06:48:04;;;;;;;;;7.00;6.75;;;;;14.23;65.03;100851.56;4861831;29;47391;-75
2022/09/25 07:55:31;;;;;;;;;4.00;2.00;;;;;14.26;64.14;100889.03;5005522;23;47622;31
2022/09/25 07:57:57;;;;;;;;;4.00;3.25;;;;;14.27;63.89;100893.34;4791788;29;46908;-74
2022/09/25 08:00:23;;;;;;;;;4.25;3.50;;;;;14.31;63.90;100886.03;4847298;29;45922;-76
2022/09/25 08:02:56;;;;;;;;;5.00;4.00;;;;;14.33;63.90;100886.75;4838543;29;46638;-73
2022/09/25 08:05:21;;;;;;;;;3.75;3.75;;;;;14.36;63.75;100885.69;4840320;29;45582;-74
2022/09/25 08:07:47;;;;;;;;;7.25;6.75;;;;;14.37;64.06;100877.66;4840420;29;45900;-76
2022/09/25 08:10:12;;;;;;;;;4.75;4.75;;;;;14.41;63.99;100886.16;4839560;29;46438;-76
2022/09/25 08:12:39;;;;;;;;;5.00;4.00;;;;;14.44;63.53;100886.75;4840338;29;47016;-78
2022/09/25 08:15:06;;;;;;;;;4.00;3.00;;;;;14.46;63.38;100883.97;4842696;29;45683;-77
2022/09/25 08:17:31;;;;;;;;;4.00;3.00;;;;;14.51;63.50;100889.72;4841010;29;45665;-75
2022/09/25 08:19:57;;;;;;;;;5.75;4.00;;;;;14.56;63.23;100890.16;4839587;29;46318;-74
2022/09/25 08:22:23;;;;;;;;;4.50;3.25;;;;;14.56;62.98;100888.38;4840368;29;46032;-77
2022/09/25 08:24:48;;;;;;;;;4.50;3.75;;;;;14.59;63.28;100881.97;4840813;29;45692;-80
2022/09/25 08:27:13;;;;;;;;;4.00;4.00;;;;;14.64;63.04;100893.81;4840490;29;45747;-76
2022/09/25 08:29:39;;;;;;;;;2.00;2.00;;;;;14.67;63.30;100890.09;4839593;29;45843;-75
2022/09/25 08:32:05;;;;;;;;;3.00;2.00;;;;;14.73;62.77;100892.22;4840771;29;47404;-75
2022/09/25 08:34:31;;;;;;;;;3.50;2.50;;;;;14.77;62.47;100898.91;4840138;29;45875;-75
2022/09/25 08:36:57;;;;;;;;;4.00;2.50;;;;;14.81;62.74;100895.03;4841145;29;45678;-77
2022/09/25 08:39:22;;;;;;;;;2.25;2.00;;;;;14.85;62.34;100903.53;4840639;29;45873;-75
2022/09/25 08:41:55;;;;;;;;;2.00;1.00;;;;;14.88;61.98;100890.09;4837873;29;46044;-76
2022/09/25 08:44:44;;;;;;;;;2.50;1.50;;;;;14.92;61.80;100892.34;4840689;29;45762;-76
2022/09/25 08:50:32;;;;;;;;;2.75;2.00;;;;;14.97;61.26;100895.44;4838458;29;45778;-78
2022/09/25 08:53:24;;;;;;;;;2.25;2.00;;;;;15.00;61.30;100891.69;4837202;29;46427;-76
2022/09/25 08:58:42;;;;;;;;;1.25;1.00;;;;;15.06;60.61;100892.00;4843952;29;45744;-75
2022/09/25 09:01:13;;;;;;;;;1.25;1.25;;;;;15.09;60.22;100889.09;4832618;29;46233;-76
2022/09/25 09:04:13;;;;;;;;;2.00;1.00;;;;;15.11;59.73;100879.25;4840196;29;46134;-76
2022/09/25 09:06:41;;;;;;;;;1.50;0.50;;;;;15.16;59.90;100893.88;4782982;29;46460;-79
2022/09/25 09:09:15;;;;;;;;;1.00;1.00;;;;;15.19;59.61;100890.94;4783760;29;46132;-75
2022/09/25 09:11:46;;;;;;;;;1.00;1.00;;;;;15.23;59.65;100887.91;4782655;29;45708;-76
2022/09/25 09:14:23;;;;;;;;;1.00;1.00;;;;;15.27;59.01;100883.22;4783051;29;48137;-74
2022/09/25 09:17:02;;;;;;;;;1.50;1.00;;;;;15.30;59.35;100891.72;4782689;29;45924;-75
2022/09/25 09:19:27;;;;;;;;;2.00;1.00;;;;;15.35;59.19;100886.03;4782673;29;46135;-77
2022/09/25 09:21:53;;;;;;;;;3.50;1.00;;;;;15.40;58.66;100894.38;4780242;29;45757;-75
2022/09/25 09:24:27;;;;;;;;;2.00;2.00;;;;;15.44;58.64;100887.84;4783192;29;45789;-75
2022/09/25 09:27:21;;;;;;;;;3.00;1.00;;;;;15.48;58.17;100891.94;4777122;29;46306;-75
2022/09/25 09:29:55;;;;;;;;;1.25;1.00;;;;;15.53;57.56;100895.03;4780516;29;46237;-75
2022/09/25 09:32:52;;;;;;;;;1.75;0.50;;;;;15.57;57.54;100882.38;4783098;29;45718;-75
2022/09/25 09:35:33;;;;;;;;;0.50;0.00;;;;;15.61;56.95;100886.41;4781067;29;46992;-78
2022/09/25 09:38:16;;;;;;;;;0.25;0.25;;;;;15.66;57.08;100886.84;4782600;29;45861;-80
2022/09/25 09:40:50;;;;;;;;;0.25;0.00;;;;;15.69;56.44;100887.44;4782582;29;45711;-81
2022/09/25 09:43:35;;;;;;;;;0.25;0.00;;;;;15.73;55.83;100886.19;4806056;29;47315;-81
2022/09/25 09:46:14;;;;;;;;;0.00;0.00;;;;;15.76;54.71;100877.97;4839329;29;46065;-80
2022/09/25 09:49:00;;;;;;;;;0.00;0.00;;;;;15.80;54.70;100889.97;4840454;29;45758;-82
2022/09/25 09:51:36;;;;;;;;;0.00;0.00;;;;;15.82;54.27;100885.38;4839193;29;47302;-78
2022/09/25 09:54:20;;;;;;;;;0.25;0.00;;;;;15.88;53.57;100886.63;4839929;29;45664;-77
2022/09/25 09:56:49;;;;;;;;;0.25;0.00;;;;;15.91;53.50;100884.56;4820110;29;48654;-78
2022/09/25 09:59:22;;;;;;;;;0.00;0.00;;;;;15.95;52.91;100875.38;4838266;29;45591;-75
2022/09/25 10:01:59;;;;;;;;;0.00;0.00;;;;;16.02;52.34;100888.06;4836216;29;45724;-76
2022/09/25 10:04:30;;;;;;;;;1.00;0.00;;;;;16.05;52.46;100887.78;4840591;29;46507;-77
2022/09/25 10:07:05;;;;;;;;;0.00;0.00;;;;;16.10;52.32;100880.25;4839298;29;46040;-76
2022/09/25 10:09:31;;;;;;;;;0.25;0.25;;;;;16.13;52.29;100888.78;4839630;29;45753;-78
2022/09/25 10:12:06;;;;;;;;;0.00;0.00;;;;;16.17;52.06;100886.69;4839567;29;45837;-75
2022/09/25 10:14:40;;;;;;;;;2.00;1.00;;;;;16.23;51.71;100888.78;4839849;29;47785;-78
2022/09/25 10:17:10;;;;;;;;;0.00;0.00;;;;;16.27;51.39;100888.34;4832781;29;45728;-77
2022/09/25 10:19:50;;;;;;;;;1.00;0.00;;;;;16.29;51.35;100877.66;4822877;29;45819;-74
2022/09/25 10:22:19;;;;;;;;;2.00;1.00;;;;;16.31;51.37;100870.41;4834923;29;45644;-78
2022/09/25 10:24:50;;;;;;;;;0.00;0.00;;;;;16.36;51.48;100865.53;4839530;29;46289;-76
2022/09/25 10:27:29;;;;;;;;;1.25;1.00;;;;;16.43;51.82;100871.09;4836778;29;46153;-75
2022/09/25 10:30:21;;;;;;;;;1.00;1.00;;;;;16.48;51.92;100871.50;4838232;29;45814;-76
2022/09/25 10:32:46;;;;;;;;;0.75;0.00;;;;;16.54;51.36;100869.13;4826550;29;45781;-76
2022/09/25 10:35:18;;;;;;;;;1.25;1.00;;;;;16.60;51.12;100867.78;4839338;29;46165;-76
2022/09/25 10:37:49;;;;;;;;;1.00;1.00;;;;;16.64;50.47;100874.44;4839666;29;46277;-76
2022/09/25 10:40:35;;;;;;;;;0.75;0.75;;;;;16.67;49.82;100875.00;4838732;29;45632;-76
2022/09/25 10:43:04;;;;;;;;;0.00;0.00;;;;;16.71;49.82;100867.63;4830314;29;45899;-81
2022/09/25 10:45:33;;;;;;;;;1.00;1.00;;;;;16.74;50.13;100862.03;4837027;29;45663;-76
2022/09/25 10:50:44;;;;;;;;;0.25;0.00;;;;;16.83;49.87;100876.22;4828069;29;45692;-76
2022/09/25 10:53:29;;;;;;;;;1.00;1.00;;;;;16.87;48.93;100862.56;4837907;29;45714;-73
2022/09/25 10:56:13;;;;;;;;;0.00;0.00;;;;;16.91;48.30;100858.66;4838601;29;46591;-73
2022/09/25 10:58:53;;;;;;;;;1.00;1.00;;;;;16.96;48.47;100869.63;4838269;29;47120;-72
2022/09/25 11:01:20;;;;;;;;;1.50;0.25;;;;;16.99;49.09;100860.59;4837753;29;45851;-74
2022/09/25 11:03:55;;;;;;;;;2.00;1.00;;;;;17.04;49.16;100853.06;4835390;29;45791;-75
2022/09/25 11:06:27;;;;;;;;;2.25;1.75;;;;;17.06;47.40;100854.56;4834305;29;46862;-74
2022/09/25 11:08:55;;;;;;;;;0.75;0.75;;;;;17.13;47.44;100862.75;4837083;29;46465;-73
2022/09/25 11:11:25;;;;;;;;;0.25;0.25;;;;;17.15;47.71;100855.53;4836284;29;45607;-75
2022/09/25 11:13:57;;;;;;;;;1.00;1.00;;;;;17.20;46.68;100859.41;4836595;29;45934;-74
2022/09/25 11:16:42;;;;;;;;;0.00;0.00;;;;;17.25;46.71;100858.97;4841024;29;46668;-76
2022/09/25 11:19:12;;;;;;;;;2.00;0.00;;;;;17.30;46.03;100863.81;4834521;29;46341;-74
2022/09/25 11:21:46;;;;;;;;;0.25;0.25;;;;;17.32;45.98;100880.41;4820970;29;46057;-73
2022/09/25 11:24:23;;;;;;;;;2.00;1.00;;;;;17.35;46.79;100867.69;4839358;29;45596;-76
2022/09/25 11:27:22;;;;;;;;;0.75;0.75;;;;;17.37;46.58;100878.16;4840631;29;46514;-83
2022/09/25 11:30:05;;;;;;;;;0.25;0.25;;;;;17.42;46.31;100871.44;4809363;29;46075;-73
2022/09/25 11:32:48;;;;;;;;;0.00;0.00;;;;;17.46;46.39;100871.97;4820789;29;45778;-73
2022/09/25 11:35:20;;;;;;;;;0.25;0.25;;;;;17.50;45.93;100876.81;4820764;29;45709;-72
2022/09/25 11:37:58;;;;;;;;;1.00;1.00;;;;;17.52;45.97;100872.22;4805821;29;47908;-81
2022/09/25 11:41:11;;;;;;;;;1.50;1.00;;;;;17.58;45.88;100874.28;4819530;29;47954;-74
2022/09/25 11:43:45;;;;;;;;;2.00;1.50;;;;;17.59;45.79;100878.63;4825675;29;45904;-76
2022/09/25 11:46:22;;;;;;;;;1.00;0.75;;;;;17.65;45.74;100871.91;4809138;29;45744;-74
2022/09/25 11:48:53;;;;;;;;;1.00;1.00;;;;;17.68;46.08;100884.84;4821865;29;46907;-76
2022/09/25 11:51:52;;;;;;;;;1.00;0.00;;;;;17.74;44.97;100872.81;4820925;29;46184;-77
2022/09/25 11:54:26;;;;;;;;;3.00;2.00;;;;;17.79;45.51;100868.75;4818548;29;46099;-76
2022/09/25 11:57:10;;;;;;;;;0.00;0.00;;;;;17.84;45.12;100876.25;4830213;29;46027;-76
2022/09/25 11:59:41;;;;;;;;;1.00;0.00;;;;;17.91;45.14;100869.38;4821413;29;46340;-77
2022/09/25 12:02:20;;;;;;;;;1.00;1.00;;;;;17.97;45.23;100860.81;4812372;29;47051;-78
2022/09/25 12:04:58;;;;;;;;;1.00;0.75;;;;;18.06;44.85;100864.38;4824277;29;45749;-78
2022/09/25 12:07:39;;;;;;;;;2.50;1.50;;;;;18.12;44.86;100859.31;4823395;29;45678;-79
2022/09/25 12:10:07;;;;;;;;;1.00;1.00;;;;;18.18;44.91;100863.19;4823481;29;46871;-82
2022/09/25 12:12:58;;;;;;;;;1.25;0.75;;;;;18.23;44.39;100876.81;4820821;29;45749;-75
2022/09/25 12:16:02;;;;;;;;;1.00;0.00;;;;;18.27;43.76;100851.66;4822316;29;46181;-79
2022/09/25 12:18:36;;;;;;;;;0.00;0.00;;;;;18.32;43.50;100860.81;4779068;29;45811;-77
2022/09/25 12:21:24;;;;;;;;;0.00;0.00;;;;;18.35;43.03;100865.81;4781201;29;47820;-78
2022/09/25 12:23:58;;;;;;;;;0.25;0.00;;;;;18.38;43.02;100854.91;4781381;29;46199;-81
2022/09/25 12:26:58;;;;;;;;;0.00;0.00;;;;;18.40;42.94;100860.91;4798035;29;45838;-83
2022/09/25 12:29:51;;;;;;;;;0.00;0.00;;;;;18.41;42.40;100857.25;4784238;29;45985;-79
2022/09/25 12:32:40;;;;;;;;;0.00;0.00;;;;;18.42;42.96;100850.94;4777907;29;47098;-75
2022/09/25 12:35:32;;;;;;;;;0.75;0.00;;;;;18.48;42.92;100843.34;4779099;29;46213;-77
2022/09/25 12:38:04;;;;;;;;;0.00;0.00;;;;;18.52;42.73;100847.38;4782205;29;45748;-77
2022/09/25 12:40:42;;;;;;;;;0.00;0.00;;;;;18.58;43.40;100833.50;4783297;29;46161;-77
2022/09/25 12:43:16;;;;;;;;;0.00;0.00;;;;;18.61;42.66;100831.41;4783286;29;45663;-78
2022/09/25 12:45:48;;;;;;;;;1.00;0.00;;;;;18.71;43.14;100826.81;4783186;29;46132;-78
2022/09/25 12:48:25;;;;;;;;;0.00;0.00;;;;;18.78;42.73;100827.88;4780390;29;45803;-78
2022/09/25 12:50:55;;;;;;;;;0.00;0.00;;;;;18.81;42.76;100839.97;4770439;29;45987;-76
2022/09/25 12:53:27;;;;;;;;;1.00;0.00;;;;;18.81;42.34;100827.53;4788503;29;46307;-81
2022/09/25 12:56:08;;;;;;;;;0.75;0.00;;;;;18.86;42.39;100830.56;4807398;29;46333;-79
2022/09/25 12:58:45;;;;;;;;;0.00;0.00;;;;;18.93;42.32;100833.44;4836678;29;45839;-79
2022/09/25 13:01:44;;;;;;;;;0.00;0.00;;;;;18.96;42.25;100814.50;4840176;29;46325;-76
2022/09/25 13:04:41;;;;;;;;;1.00;0.00;;;;;19.02;41.99;100818.34;4766498;29;46392;-78
2022/09/25 13:07:20;;;;;;;;;0.00;0.00;;;;;19.06;41.51;100807.25;4770045;29;46019;-77
2022/09/25 13:09:47;;;;;;;;;0.00;0.00;;;;;19.10;41.52;100808.63;4760214;29;45763;-77